sensor_id;sensor_type;location;lat;lon;timestamp;pressure;altitude;pressure_sealevel;temperature;humidity
47763;BME280;33526;42.690;23.322;2023-04-05T00:00:08;94589.91;;;0.59;84.91
47763;BME280;33526;42.690;23.322;2023-04-05T00:02:36;94588.41;;;0.54;84.82
47763;BME280;33526;42.690;23.322;2023-04-05T00:05:04;94582.16;;;0.50;84.78
47763;BME280;33526;42.690;23.322;2023-04-05T00:07:30;94580.66;;;0.46;85.09
47763;BME280;33526;42.690;23.322;2023-04-05T00:09:59;94590.09;;;0.45;85.29
47763;BME280;33526;42.690;23.322;2023-04-05T00:12:34;94576.81;;;0.40;85.46
47763;BME280;33526;42.690;23.322;2023-04-05T00:14:59;94579.19;;;0.37;85.48
47763;BME280;33526;42.690;23.322;2023-04-05T00:17:28;94577.75;;;0.29;85.60
47763;BME280;33526;42.690;23.322;2023-04-05T00:19:55;94573.03;;;0.30;85.61
47763;BME280;33526;42.690;23.322;2023-04-05T00:22:21;94580.09;;;0.31;85.68
47763;BME280;33526;42.690;23.322;2023-04-05T00:24:50;94583.72;;;0.24;86.09
47763;BME280;33526;42.690;23.322;2023-04-05T00:27:17;94577.94;;;0.15;86.38
47763;BME280;33526;42.690;23.322;2023-04-05T00:29:46;94578.41;;;0.10;86.52
47763;BME280;33526;42.690;23.322;2023-04-05T00:32:14;94582.66;;;0.14;86.71
47763;BME280;33526;42.690;23.322;2023-04-05T00:34:40;94580.50;;;0.29;86.82
47763;BME280;33526;42.690;23.322;2023-04-05T00:37:08;94583.97;;;0.33;85.65
47763;BME280;33526;42.690;23.322;2023-04-05T00:39:37;94589.38;;;0.41;85.45
47763;BME280;33526;42.690;23.322;2023-04-05T00:42:07;94585.91;;;0.36;85.25
47763;BME280;33526;42.690;23.322;2023-04-05T00:44:35;94578.84;;;0.35;84.63
47763;BME280;33526;42.690;23.322;2023-04-05T00:47:03;94578.75;;;0.43;84.84
47763;BME280;33526;42.690;23.322;2023-04-05T00:49:31;94590.38;;;0.54;84.42
47763;BME280;33526;42.690;23.322;2023-04-05T00:52:00;94582.25;;;0.43;83.97
47763;BME280;33526;42.690;23.322;2023-04-05T00:54:26;94592.50;;;0.43;84.24
47763;BME280;33526;42.690;23.322;2023-04-05T00:56:56;94590.09;;;0.45;84.81
47763;BME280;33526;42.690;23.322;2023-04-05T00:59:23;94596.34;;;0.49;83.85
47763;BME280;33526;42.690;23.322;2023-04-05T01:01:49;94590.06;;;0.48;83.70
47763;BME280;33526;42.690;23.322;2023-04-05T01:04:27;94593.59;;;0.49;83.84
47763;BME280;33526;42.690;23.322;2023-04-05T01:09:39;94593.41;;;0.63;84.23
47763;BME280;33526;42.690;23.322;2023-04-05T01:12:08;94591.56;;;0.53;83.53
47763;BME280;33526;42.690;23.322;2023-04-05T01:14:46;94592.59;;;0.63;83.56
47763;BME280;33526;42.690;23.322;2023-04-05T01:17:13;94595.28;;;0.66;82.67
47763;BME280;33526;42.690;23.322;2023-04-05T01:19:40;94597.22;;;0.69;82.40
47763;BME280;33526;42.690;23.322;2023-04-05T01:25:01;94597.31;;;0.89;81.65
47763;BME280;33526;42.690;23.322;2023-04-05T01:30:05;94593.91;;;0.54;80.97
47763;BME280;33526;42.690;23.322;2023-04-05T01:32:45;94602.47;;;0.60;81.17
47763;BME280;33526;42.690;23.322;2023-04-05T01:35:18;94611.28;;;0.48;81.52
47763;BME280;33526;42.690;23.322;2023-04-05T01:37:47;94613.69;;;0.46;82.27
47763;BME280;33526;42.690;23.322;2023-04-05T01:40:19;94603.09;;;0.44;81.91
47763;BME280;33526;42.690;23.322;2023-04-05T01:42:45;94607.03;;;0.43;82.08
47763;BME280;33526;42.690;23.322;2023-04-05T01:45:11;94601.97;;;0.42;81.89
47763;BME280;33526;42.690;23.322;2023-04-05T01:47:37;94600.38;;;0.41;82.26
47763;BME280;33526;42.690;23.322;2023-04-05T01:50:03;94612.09;;;0.45;82.45
47763;BME280;33526;42.690;23.322;2023-04-05T01:52:28;94609.34;;;0.45;81.89
47763;BME280;33526;42.690;23.322;2023-04-05T01:54:54;94602.69;;;0.46;81.95
47763;BME280;33526;42.690;23.322;2023-04-05T01:57:19;94599.56;;;0.44;81.89
47763;BME280;33526;42.690;23.322;2023-04-05T01:59:44;94596.44;;;0.42;81.78
47763;BME280;33526;42.690;23.322;2023-04-05T02:02:10;94601.19;;;0.37;81.63
47763;BME280;33526;42.690;23.322;2023-04-05T02:04:35;94593.31;;;0.40;82.01
47763;BME280;33526;42.690;23.322;2023-04-05T02:07:01;94609.09;;;0.35;81.75
47763;BME280;33526;42.690;23.322;2023-04-05T02:09:27;94606.44;;;0.28;81.75
47763;BME280;33526;42.690;23.322;2023-04-05T02:11:53;94615.59;;;0.18;82.34
47763;BME280;33526;42.690;23.322;2023-04-05T02:14:18;94605.72;;;0.24;82.76
47763;BME280;33526;42.690;23.322;2023-04-05T02:16:44;94615.50;;;0.25;82.22
47763;BME280;33526;42.690;23.322;2023-04-05T02:19:10;94605.63;;;0.31;82.08
47763;BME280;33526;42.690;23.322;2023-04-05T02:21:57;94610.06;;;0.22;81.72
47763;BME280;33526;42.690;23.322;2023-04-05T02:24:25;94606.91;;;0.23;82.30
47763;BME280;33526;42.690;23.322;2023-04-05T02:26:52;94604.50;;;0.25;82.26
47763;BME280;33526;42.690;23.322;2023-04-05T02:29:17;94607.25;;;0.25;82.54
47763;BME280;33526;42.690;23.322;2023-04-05T02:31:42;94609.19;;;0.28;82.84
47763;BME280;33526;42.690;23.322;2023-04-05T02:34:08;94602.97;;;0.24;82.30
47763;BME280;33526;42.690;23.322;2023-04-05T02:36:35;94602.16;;;0.27;82.33
47763;BME280;33526;42.690;23.322;2023-04-05T02:39:01;94609.56;;;0.30;82.69
47763;BME280;33526;42.690;23.322;2023-04-05T02:41:27;94605.25;;;0.29;82.69
47763;BME280;33526;42.690;23.322;2023-04-05T02:43:52;94604.41;;;0.32;82.60
47763;BME280;33526;42.690;23.322;2023-04-05T02:46:19;94598.91;;;0.32;82.96
47763;BME280;33526;42.690;23.322;2023-04-05T02:48:44;94603.66;;;0.32;82.80
47763;BME280;33526;42.690;23.322;2023-04-05T02:51:11;94600.44;;;0.37;83.07
47763;BME280;33526;42.690;23.322;2023-04-05T02:53:38;94605.97;;;0.33;82.20
47763;BME280;33526;42.690;23.322;2023-04-05T02:56:03;94602.78;;;0.38;82.81
47763;BME280;33526;42.690;23.322;2023-04-05T02:58:30;94595.50;;;0.52;82.49
47763;BME280;33526;42.690;23.322;2023-04-05T03:00:55;94601.00;;;0.52;82.43
47763;BME280;33526;42.690;23.322;2023-04-05T03:03:22;94597.44;;;0.55;82.57
47763;BME280;33526;42.690;23.322;2023-04-05T03:05:48;94604.28;;;0.43;82.61
47763;BME280;33526;42.690;23.322;2023-04-05T03:08:21;94600.38;;;0.41;82.53
47763;BME280;33526;42.690;23.322;2023-04-05T03:10:51;94603.97;;;0.37;82.94
47763;BME280;33526;42.690;23.322;2023-04-05T03:13:17;94605.25;;;0.29;82.92
47763;BME280;33526;42.690;23.322;2023-04-05T03:15:42;94600.84;;;0.35;83.46
47763;BME280;33526;42.690;23.322;2023-04-05T03:18:08;94592.44;;;0.46;83.22
47763;BME280;33526;42.690;23.322;2023-04-05T03:20:35;94595.16;;;0.50;83.09
47763;BME280;33526;42.690;23.322;2023-04-05T03:23:24;94598.72;;;0.47;82.43
47763;BME280;33526;42.690;23.322;2023-04-05T03:26:00;94602.56;;;0.53;82.85
47763;BME280;33526;42.690;23.322;2023-04-05T03:28:27;94608.19;;;0.46;82.79
47763;BME280;33526;42.690;23.322;2023-04-05T03:30:53;94602.94;;;0.55;83.16
47763;BME280;33526;42.690;23.322;2023-04-05T03:33:19;94602.56;;;0.53;83.53
47763;BME280;33526;42.690;23.322;2023-04-05T03:35:45;94593.97;;;0.51;83.33
47763;BME280;33526;42.690;23.322;2023-04-05T03:38:11;94604.59;;;0.49;83.05
47763;BME280;33526;42.690;23.322;2023-04-05T03:40:37;94607.72;;;0.51;83.15
47763;BME280;33526;42.690;23.322;2023-04-05T03:43:03;94601.47;;;0.47;83.07
47763;BME280;33526;42.690;23.322;2023-04-05T03:45:29;94606.97;;;0.47;83.32
47763;BME280;33526;42.690;23.322;2023-04-05T03:47:54;94616.78;;;0.48;83.75
47763;BME280;33526;42.690;23.322;2023-04-05T03:50:20;94612.75;;;0.56;83.57
47763;BME280;33526;42.690;23.322;2023-04-05T03:52:48;94620.91;;;0.63;83.49
47763;BME280;33526;42.690;23.322;2023-04-05T03:55:13;94626.94;;;0.54;83.59
47763;BME280;33526;42.690;23.322;2023-04-05T03:57:41;94620.31;;;0.48;85.23
47763;BME280;33526;42.690;23.322;2023-04-05T04:00:17;94622.28;;;0.48;86.81
47763;BME280;33526;42.690;23.322;2023-04-05T04:03:17;94627.88;;;0.41;86.01
47763;BME280;33526;42.690;23.322;2023-04-05T04:06:09;94633.84;;;0.35;86.32
47763;BME280;33526;42.690;23.322;2023-04-05T04:08:40;94633.28;;;0.48;86.54
47763;BME280;33526;42.690;23.322;2023-04-05T04:11:21;94638.81;;;0.48;86.26
47763;BME280;33526;42.690;23.322;2023-04-05T05:01:19;94643.91;;;0.76;84.35
47763;BME280;33526;42.690;23.322;2023-04-05T05:12:42;94645.97;;;0.96;83.44
47763;BME280;33526;42.690;23.322;2023-04-05T05:20:30;94647.72;;;0.83;82.38
47763;BME280;33526;42.690;23.322;2023-04-05T05:25:36;94644.31;;;1.02;82.92
47763;BME280;33526;42.690;23.322;2023-04-05T05:28:42;94655.59;;;0.84;80.92
47763;BME280;33526;42.690;23.322;2023-04-05T05:31:13;94657.91;;;0.86;81.97
47763;BME280;33526;42.690;23.322;2023-04-05T05:37:01;94664.03;;;0.97;80.85
47763;BME280;33526;42.690;23.322;2023-04-05T05:47:57;94662.53;;;1.43;79.51
47763;BME280;33526;42.690;23.322;2023-04-05T05:50:25;94657.97;;;1.33;77.75
47763;BME280;33526;42.690;23.322;2023-04-05T05:52:55;94643.56;;;1.25;77.79
47763;BME280;33526;42.690;23.322;2023-04-05T05:55:22;94655.72;;;1.28;77.75
47763;BME280;33526;42.690;23.322;2023-04-05T06:00:19;94651.81;;;1.25;78.15
47763;BME280;33526;42.690;23.322;2023-04-05T06:03:04;94651.41;;;1.27;76.99
47763;BME280;33526;42.690;23.322;2023-04-05T06:10:51;94658.72;;;1.61;76.31
47763;BME280;33526;42.690;23.322;2023-04-05T06:13:41;94657.78;;;1.67;75.50
47763;BME280;33526;42.690;23.322;2023-04-05T06:22:17;94676.31;;;1.67;74.46
47763;BME280;33526;42.690;23.322;2023-04-05T06:24:45;94678.03;;;1.81;74.57
47763;BME280;33526;42.690;23.322;2023-04-05T06:27:14;94663.97;;;1.75;73.79
47763;BME280;33526;42.690;23.322;2023-04-05T06:30:00;94664.22;;;2.04;74.45
47763;BME280;33526;42.690;23.322;2023-04-05T06:32:39;94680.06;;;2.20;73.43
47763;BME280;33526;42.690;23.322;2023-04-05T06:35:08;94669.59;;;2.32;72.87
47763;BME280;33526;42.690;23.322;2023-04-05T06:37:35;94669.66;;;2.28;72.20
47763;BME280;33526;42.690;23.322;2023-04-05T06:40:05;94679.25;;;2.23;72.25
47763;BME280;33526;42.690;23.322;2023-04-05T07:36:12;94733.09;;;2.88;68.55
47763;BME280;33526;42.690;23.322;2023-04-05T08:07:26;94770.38;;;2.40;69.00
47763;BME280;33526;42.690;23.322;2023-04-05T08:10:05;94770.38;;;2.40;69.24
47763;BME280;33526;42.690;23.322;2023-04-05T08:15:41;94764.91;;;2.36;69.51
47763;BME280;33526;42.690;23.322;2023-04-05T08:18:07;94765.28;;;2.58;68.89
47763;BME280;33526;42.690;23.322;2023-04-05T08:20:32;94765.19;;;2.42;68.53
47763;BME280;33526;42.690;23.322;2023-04-05T08:38:50;94779.59;;;2.29;69.35
47763;BME280;33526;42.690;23.322;2023-04-05T08:41:21;94785.25;;;2.22;70.34
47763;BME280;33526;42.690;23.322;2023-04-05T08:44:08;94784.38;;;2.49;70.93
47763;BME280;33526;42.690;23.322;2023-04-05T08:46:35;94787.28;;;2.62;69.91
47763;BME280;33526;42.690;23.322;2023-04-05T08:49:07;94788.31;;;2.48;70.02
47763;BME280;33526;42.690;23.322;2023-04-05T08:54:10;94799.81;;;2.66;70.10
47763;BME280;33526;42.690;23.322;2023-04-05T09:04:36;94808.44;;;2.48;70.87
47763;BME280;33526;42.690;23.322;2023-04-05T09:13:43;94810.78;;;2.70;70.23
47763;BME280;33526;42.690;23.322;2023-04-05T09:49:01;94810.34;;;3.85;64.91
47763;BME280;33526;42.690;23.322;2023-04-05T09:55:03;94791.50;;;3.96;63.12
47763;BME280;33526;42.690;23.322;2023-04-05T11:43:53;94813.06;;;3.52;60.16
47763;BME280;33526;42.690;23.322;2023-04-05T11:46:33;94814.84;;;3.78;59.02
47763;BME280;33526;42.690;23.322;2023-04-05T11:49:16;94807.91;;;4.03;58.97
47763;BME280;33526;42.690;23.322;2023-04-05T11:51:45;94807.56;;;3.85;58.06
47763;BME280;33526;42.690;23.322;2023-04-05T11:54:13;94816.94;;;3.91;58.83
47763;BME280;33526;42.690;23.322;2023-04-05T11:59:43;94814.50;;;3.93;60.36
47763;BME280;33526;42.690;23.322;2023-04-05T12:04:58;94796.84;;;4.19;59.23
47763;BME280;33526;42.690;23.322;2023-04-05T12:08:21;94811.53;;;4.33;59.51
47763;BME280;33526;42.690;23.322;2023-04-05T12:13:58;94802.22;;;3.94;60.75
47763;BME280;33526;42.690;23.322;2023-04-05T12:16:36;94794.91;;;3.51;63.59
47763;BME280;33526;42.690;23.322;2023-04-05T12:19:16;94820.56;;;4.04;61.96
47763;BME280;33526;42.690;23.322;2023-04-05T12:22:06;94813.09;;;4.34;60.82
47763;BME280;33526;42.690;23.322;2023-04-05T12:25:03;94813.94;;;4.47;59.46
47763;BME280;33526;42.690;23.322;2023-04-05T12:27:32;94814.31;;;4.33;60.15
47763;BME280;33526;42.690;23.322;2023-04-05T12:30:12;94811.63;;;4.46;60.06
47763;BME280;33526;42.690;23.322;2023-04-05T12:32:49;94817.84;;;4.33;60.78
47763;BME280;33526;42.690;23.322;2023-04-05T12:35:21;94806.88;;;4.13;61.09
47763;BME280;33526;42.690;23.322;2023-04-05T12:38:00;94804.06;;;4.46;60.13
47763;BME280;33526;42.690;23.322;2023-04-05T12:40:29;94819.16;;;3.79;61.14
47763;BME280;33526;42.690;23.322;2023-04-05T12:43:17;94795.47;;;3.78;62.00
47763;BME280;33526;42.690;23.322;2023-04-05T12:45:47;94810.69;;;4.19;61.59
47763;BME280;33526;42.690;23.322;2023-04-05T12:48:18;94811.16;;;4.64;59.96
47763;BME280;33526;42.690;23.322;2023-04-05T12:50:47;94811.25;;;4.89;59.40
47763;BME280;33526;42.690;23.322;2023-04-05T12:53:22;94800.34;;;4.07;61.39
47763;BME280;33526;42.690;23.322;2023-04-05T12:58:15;94811.19;;;3.98;60.98
47763;BME280;33526;42.690;23.322;2023-04-05T13:00:46;94813.28;;;4.10;61.00
47763;BME280;33526;42.690;23.322;2023-04-05T13:03:20;94812.09;;;3.95;59.40
47763;BME280;33526;42.690;23.322;2023-04-05T13:05:50;94814.06;;;3.41;60.42
47763;BME280;33526;42.690;23.322;2023-04-05T13:08:46;94813.50;;;3.14;61.53
47763;BME280;33526;42.690;23.322;2023-04-05T13:11:21;94819.50;;;3.09;61.03
47763;BME280;33526;42.690;23.322;2023-04-05T13:14:07;94815.53;;;3.10;61.22
47763;BME280;33526;42.690;23.322;2023-04-05T13:16:34;94822.06;;;3.19;61.44
47763;BME280;33526;42.690;23.322;2023-04-05T13:19:16;94815.19;;;3.08;61.39
47763;BME280;33526;42.690;23.322;2023-04-05T13:21:45;94820.22;;;2.93;62.54
47763;BME280;33526;42.690;23.322;2023-04-05T13:24:13;94813.19;;;2.88;62.25
47763;BME280;33526;42.690;23.322;2023-04-05T13:26:38;94816.03;;;3.04;62.00
47763;BME280;33526;42.690;23.322;2023-04-05T13:29:05;94828.69;;;3.22;61.47
47763;BME280;33526;42.690;23.322;2023-04-05T13:31:32;94819.22;;;3.23;61.31
47763;BME280;33526;42.690;23.322;2023-04-05T13:34:01;94823.78;;;3.50;61.35
47763;BME280;33526;42.690;23.322;2023-04-05T13:36:28;94821.63;;;3.57;60.64
47763;BME280;33526;42.690;23.322;2023-04-05T13:39:03;94824.97;;;3.49;60.46
47763;BME280;33526;42.690;23.322;2023-04-05T13:41:32;94827.91;;;3.41;61.48
47763;BME280;33526;42.690;23.322;2023-04-05T13:44:07;94811.97;;;3.29;62.09
47763;BME280;33526;42.690;23.322;2023-04-05T13:46:44;94818.75;;;3.44;61.60
47763;BME280;33526;42.690;23.322;2023-04-05T13:49:15;94820.13;;;3.53;61.25
47763;BME280;33526;42.690;23.322;2023-04-05T13:52:03;94822.72;;;3.43;62.12
47763;BME280;33526;42.690;23.322;2023-04-05T14:26:17;94842.41;;;2.22;66.42
47763;BME280;33526;42.690;23.322;2023-04-05T14:29:22;94843.28;;;2.62;65.02
47763;BME280;33526;42.690;23.322;2023-04-05T14:32:37;94855.19;;;2.59;64.71
47763;BME280;33526;42.690;23.322;2023-04-05T14:35:28;94849.50;;;2.66;64.38
47763;BME280;33526;42.690;23.322;2023-04-05T14:38:38;94852.66;;;2.45;64.48
47763;BME280;33526;42.690;23.322;2023-04-05T14:44:22;94840.94;;;2.61;65.06
47763;BME280;33526;42.690;23.322;2023-04-05T14:52:53;94851.91;;;2.84;63.04
47763;BME280;33526;42.690;23.322;2023-04-05T14:55:25;94852.75;;;2.61;64.01
47763;BME280;33526;42.690;23.322;2023-04-05T15:01:28;94867.13;;;2.53;64.69
47763;BME280;33526;42.690;23.322;2023-04-05T15:09:39;94867.59;;;2.47;65.96
47763;BME280;33526;42.690;23.322;2023-04-05T15:18:00;94873.16;;;2.44;66.47
47763;BME280;33526;42.690;23.322;2023-04-05T15:20:47;94875.88;;;2.47;66.70
47763;BME280;33526;42.690;23.322;2023-04-05T15:23:16;94880.13;;;2.28;67.40
47763;BME280;33526;42.690;23.322;2023-04-05T15:26:20;94873.22;;;1.66;69.70
47763;BME280;33526;42.690;23.322;2023-04-05T15:28:54;94877.19;;;1.61;70.60
47763;BME280;33526;42.690;23.322;2023-04-05T15:31:24;94873.25;;;1.62;70.96
47763;BME280;33526;42.690;23.322;2023-04-05T15:34:16;94875.84;;;2.00;71.36
47763;BME280;33526;42.690;23.322;2023-04-05T15:36:59;94876.47;;;2.12;69.82
47763;BME280;33526;42.690;23.322;2023-04-05T15:40:04;94892.00;;;2.25;69.56
47763;BME280;33526;42.690;23.322;2023-04-05T15:42:30;94885.56;;;2.32;68.67
47763;BME280;33526;42.690;23.322;2023-04-05T15:44:55;94887.22;;;2.29;68.52
47763;BME280;33526;42.690;23.322;2023-04-05T15:47:20;94885.34;;;2.46;68.45
47763;BME280;33526;42.690;23.322;2023-04-05T15:49:46;94885.41;;;2.43;67.79
47763;BME280;33526;42.690;23.322;2023-04-05T15:52:13;94897.78;;;2.35;68.03
47763;BME280;33526;42.690;23.322;2023-04-05T15:54:39;94895.72;;;2.39;67.80
47763;BME280;33526;42.690;23.322;2023-04-05T15:57:10;94896.56;;;2.36;67.81
47763;BME280;33526;42.690;23.322;2023-04-05T15:59:40;94898.38;;;2.46;67.85
47763;BME280;33526;42.690;23.322;2023-04-05T16:02:23;94883.44;;;2.43;68.20
47763;BME280;33526;42.690;23.322;2023-04-05T16:05:10;94886.03;;;2.31;68.38
47763;BME280;33526;42.690;23.322;2023-04-05T16:07:35;94899.28;;;2.12;69.00
47763;BME280;33526;42.690;23.322;2023-04-05T16:10:01;94883.03;;;1.94;69.63
47763;BME280;33526;42.690;23.322;2023-04-05T16:12:28;94883.94;;;1.87;70.00
47763;BME280;33526;42.690;23.322;2023-04-05T16:14:57;94888.59;;;1.90;70.21
47763;BME280;33526;42.690;23.322;2023-04-05T16:17:22;94887.72;;;1.97;69.44
47763;BME280;33526;42.690;23.322;2023-04-05T16:19:49;94886.78;;;2.07;69.43
47763;BME280;33526;42.690;23.322;2023-04-05T16:22:15;94883.31;;;2.00;69.26
47763;BME280;33526;42.690;23.322;2023-04-05T16:24:40;94879.38;;;2.01;69.47
47763;BME280;33526;42.690;23.322;2023-04-05T16:27:06;94893.66;;;2.19;69.76
47763;BME280;33526;42.690;23.322;2023-04-05T16:29:31;94891.59;;;2.00;68.62
47763;BME280;33526;42.690;23.322;2023-04-05T16:31:59;94896.75;;;1.70;69.24
47763;BME280;33526;42.690;23.322;2023-04-05T16:34:25;94898.59;;;1.81;71.76
47763;BME280;33526;42.690;23.322;2023-04-05T16:36:50;94883.78;;;1.40;70.20
47763;BME280;33526;42.690;23.322;2023-04-05T16:39:16;94887.47;;;1.61;70.74
47763;BME280;33526;42.690;23.322;2023-04-05T16:41:41;94889.69;;;1.69;70.47
47763;BME280;33526;42.690;23.322;2023-04-05T16:44:07;94888.19;;;1.65;69.82
47763;BME280;33526;42.690;23.322;2023-04-05T16:46:32;94885.28;;;1.45;69.90
47763;BME280;33526;42.690;23.322;2023-04-05T16:48:58;94885.34;;;1.41;70.39
47763;BME280;33526;42.690;23.322;2023-04-05T16:51:23;94882.50;;;1.48;70.87
47763;BME280;33526;42.690;23.322;2023-04-05T16:53:49;94887.84;;;1.32;71.28
47763;BME280;33526;42.690;23.322;2023-04-05T16:56:15;94891.69;;;1.38;70.68
47763;BME280;33526;42.690;23.322;2023-04-05T16:58:43;94877.91;;;1.38;70.44
47763;BME280;33526;42.690;23.322;2023-04-05T17:01:08;94874.50;;;1.27;70.52
47763;BME280;33526;42.690;23.322;2023-04-05T17:03:34;94887.47;;;1.30;71.52
47763;BME280;33526;42.690;23.322;2023-04-05T17:06:02;94888.00;;;1.48;70.87
47763;BME280;33526;42.690;23.322;2023-04-05T17:08:30;94886.13;;;1.42;70.69
47763;BME280;33526;42.690;23.322;2023-04-05T17:10:58;94887.66;;;1.46;70.51
47763;BME280;33526;42.690;23.322;2023-04-05T17:13:23;94890.00;;;1.48;71.27
47763;BME280;33526;42.690;23.322;2023-04-05T17:15:49;94893.84;;;1.54;70.17
47763;BME280;33526;42.690;23.322;2023-04-05T17:18:14;94897.78;;;1.53;70.29
47763;BME280;33526;42.690;23.322;2023-04-05T17:20:40;94907.44;;;1.38;70.14
47763;BME280;33526;42.690;23.322;2023-04-05T17:23:08;94902.34;;;1.36;70.82
47763;BME280;33526;42.690;23.322;2023-04-05T17:25:33;94904.19;;;1.46;70.33
47763;BME280;33526;42.690;23.322;2023-04-05T17:27:59;94904.28;;;1.39;70.28
47763;BME280;33526;42.690;23.322;2023-04-05T17:30:24;94908.25;;;1.34;70.43
47763;BME280;33526;42.690;23.322;2023-04-05T17:32:50;94905.00;;;1.43;71.17
47763;BME280;33526;42.690;23.322;2023-04-05T17:35:15;94905.72;;;1.47;70.90
47763;BME280;33526;42.690;23.322;2023-04-05T17:37:41;94907.19;;;1.56;71.01
47763;BME280;33526;42.690;23.322;2023-04-05T17:40:06;94909.97;;;1.56;70.27
47763;BME280;33526;42.690;23.322;2023-04-05T17:42:35;94908.84;;;1.49;70.18
47763;BME280;33526;42.690;23.322;2023-04-05T17:45:00;94905.00;;;1.43;70.10
47763;BME280;33526;42.690;23.322;2023-04-05T17:47:26;94910.41;;;1.20;70.63
47763;BME280;33526;42.690;23.322;2023-04-05T17:49:52;94910.69;;;1.29;70.78
47763;BME280;33526;42.690;23.322;2023-04-05T17:52:17;94917.09;;;1.19;70.73
47763;BME280;33526;42.690;23.322;2023-04-05T17:54:42;94921.78;;;1.22;71.07
47763;BME280;33526;42.690;23.322;2023-04-05T17:57:08;94932.16;;;1.10;71.96
47763;BME280;33526;42.690;23.322;2023-04-05T17:59:39;94927.91;;;1.02;71.75
47763;BME280;33526;42.690;23.322;2023-04-05T18:02:05;94930.72;;;0.95;71.53
47763;BME280;33526;42.690;23.322;2023-04-05T18:04:30;94925.19;;;0.99;71.98
47763;BME280;33526;42.690;23.322;2023-04-05T18:06:55;94922.53;;;0.88;72.09
47763;BME280;33526;42.690;23.322;2023-04-05T18:09:20;94937.97;;;0.82;72.99
47763;BME280;33526;42.690;23.322;2023-04-05T18:11:46;94935.50;;;0.91;72.44
47763;BME280;33526;42.690;23.322;2023-04-05T18:14:12;94930.66;;;1.02;72.59
47763;BME280;33526;42.690;23.322;2023-04-05T18:16:37;94929.84;;;1.05;71.60
47763;BME280;33526;42.690;23.322;2023-04-05T18:19:02;94926.00;;;0.99;72.31
47763;BME280;33526;42.690;23.322;2023-04-05T18:21:28;94933.00;;;1.04;72.11
47763;BME280;33526;42.690;23.322;2023-04-05T18:23:53;94935.34;;;1.05;72.09
47763;BME280;33526;42.690;23.322;2023-04-05T18:26:18;94931.41;;;1.06;71.96
47763;BME280;33526;42.690;23.322;2023-04-05T18:28:44;94930.97;;;1.08;71.90
47763;BME280;33526;42.690;23.322;2023-04-05T18:31:09;94933.00;;;1.04;72.44
47763;BME280;33526;42.690;23.322;2023-04-05T18:33:35;94935.03;;;1.00;72.18
47763;BME280;33526;42.690;23.322;2023-04-05T18:36:05;94941.59;;;1.09;72.67
47763;BME280;33526;42.690;23.322;2023-04-05T18:38:31;94940.81;;;1.09;72.03
47763;BME280;33526;42.690;23.322;2023-04-05T18:41:00;94936.84;;;1.13;72.83
47763;BME280;33526;42.690;23.322;2023-04-05T18:43:27;94935.19;;;1.20;72.06
47763;BME280;33526;42.690;23.322;2023-04-05T18:45:53;94942.69;;;1.19;71.53
47763;BME280;33526;42.690;23.322;2023-04-05T18:48:18;94942.91;;;0.98;71.83
47763;BME280;33526;42.690;23.322;2023-04-05T18:50:44;94951.19;;;0.98;72.31
47763;BME280;33526;42.690;23.322;2023-04-05T18:53:09;94942.59;;;0.92;72.21
47763;BME280;33526;42.690;23.322;2023-04-05T18:55:35;94944.91;;;0.93;72.33
47763;BME280;33526;42.690;23.322;2023-04-05T18:58:00;94945.25;;;0.99;72.17
47763;BME280;33526;42.690;23.322;2023-04-05T19:00:26;94948.75;;;1.03;71.98
47763;BME280;33526;42.690;23.322;2023-04-05T19:02:54;94948.69;;;1.10;72.12
47763;BME280;33526;42.690;23.322;2023-04-05T19:05:20;94954.66;;;1.02;71.67
47763;BME280;33526;42.690;23.322;2023-04-05T19:07:46;94945.56;;;1.08;72.35
47763;BME280;33526;42.690;23.322;2023-04-05T19:10:11;94947.19;;;1.02;72.04
47763;BME280;33526;42.690;23.322;2023-04-05T19:12:36;94950.78;;;0.99;71.51
47763;BME280;33526;42.690;23.322;2023-04-05T19:15:02;94955.13;;;0.93;72.69
47763;BME280;33526;42.690;23.322;2023-04-05T19:17:27;94950.06;;;0.88;72.58
47763;BME280;33526;42.690;23.322;2023-04-05T19:19:55;94951.06;;;0.70;73.03
47763;BME280;33526;42.690;23.322;2023-04-05T19:22:20;94944.94;;;0.90;73.01
47763;BME280;33526;42.690;23.322;2023-04-05T19:24:48;94954.63;;;0.64;73.08
47763;BME280;33526;42.690;23.322;2023-04-05T19:27:16;94943.63;;;0.64;73.84
47763;BME280;33526;42.690;23.322;2023-04-05T19:29:42;94947.88;;;0.72;73.55
47763;BME280;33526;42.690;23.322;2023-04-05T19:32:07;94943.53;;;0.74;73.05
47763;BME280;33526;42.690;23.322;2023-04-05T19:34:34;94940.41;;;0.72;73.12
47763;BME280;33526;42.690;23.322;2023-04-05T19:37:01;94940.41;;;0.72;73.47
47763;BME280;33526;42.690;23.322;2023-04-05T19:39:27;94934.06;;;0.75;73.08
47763;BME280;33526;42.690;23.322;2023-04-05T19:41:53;94938.44;;;0.73;73.00
47763;BME280;33526;42.690;23.322;2023-04-05T19:47:13;94933.28;;;0.75;73.43
47763;BME280;33526;42.690;23.322;2023-04-05T19:49:41;94929.06;;;0.67;73.24
47763;BME280;33526;42.690;23.322;2023-04-05T19:52:07;94927.22;;;0.53;73.97
47763;BME280;33526;42.690;23.322;2023-04-05T19:54:35;94925.97;;;0.57;73.91
47763;BME280;33526;42.690;23.322;2023-04-05T19:57:00;94920.88;;;0.60;73.70
47763;BME280;33526;42.690;23.322;2023-04-05T19:59:27;94917.81;;;0.47;74.06
47763;BME280;33526;42.690;23.322;2023-04-05T20:01:58;94916.31;;;0.42;74.49
47763;BME280;33526;42.690;23.322;2023-04-05T20:04:24;94915.44;;;0.52;74.23
47763;BME280;33526;42.690;23.322;2023-04-05T20:06:53;94914.63;;;0.52;74.35
47763;BME280;33526;42.690;23.322;2023-04-05T20:09:23;94923.38;;;0.40;74.37
47763;BME280;33526;42.690;23.322;2023-04-05T20:14:16;94904.13;;;0.40;74.24
47763;BME280;33526;42.690;23.322;2023-04-05T20:16:44;94907.41;;;0.27;74.88
47763;BME280;33526;42.690;23.322;2023-04-05T20:19:09;94923.13;;;0.23;75.21
47763;BME280;33526;42.690;23.322;2023-04-05T20:21:35;94914.09;;;0.26;75.43
47763;BME280;33526;42.690;23.322;2023-04-05T20:24:01;94914.88;;;0.23;75.40
47763;BME280;33526;42.690;23.322;2023-04-05T20:26:27;94917.16;;;0.35;75.57